world map with SNG marked

SNG - Airport

This information may not be accurate or current and is not valid for navigation or flight planning. No warranty of fitness for any purpose is made or implied.

flag of Santa Cruzflag of Bolivia

Donate via PayPal

Additional information is available on the NEW Great Circle Mapper

Location
City:  San Ignacio de Velasco, Velasco, Santa Cruz, Bolivia
Name:Capitán Av. Juan Cochamanidis Airport
ICAO / IATA:SLSI / SNG

Details
Type:Airport (Aerodrome, Airfield)
Latitude:16°23'04"S (-16.384443)
Longitude:60°57'46"W (-60.962777)
Elevation:1354 ft (413 m)
Runways:1
Longest:3937 ft (1200 m)

Time
Timezone:UTC+30:08 (DST+32:08)
Local Time:

Weather
METAR:SLSI  041400Z 19008KT 9999 SCT015 BKN070 26/22 Q1017
TAF:SLSI  (expired)

Related Locations
Nearby:
Farthest:RPUG: 12363 mi / 19896 km
Lingayen, Luzon Island, PH

Find:

   beyond  
but within

Other Information
Maps:
Sources:

  


 


Great Circle Mapper   Great Circle Mapper
Great Circle Mapper FAQ   Great Circle Mapper FAQ
  Karl's Home Page
KLS˛   KLS˛ Home
   GC on Facebook
Airlines of the World   Airlines of the World
Donate via PayPal


Copyright © 2004-2019, Karl L. Swartz. All rights reserved.
All trademarks mentioned herein belong to their respective owners.

Please see credits for attribution and copyright information.

Karl Swartz <karl@kls2.com>
  Powered by FreeBSD
Valid HTML 4.01!
Labeled with ICRA
hCard Microformat
Geo Microformat